Time;durP1;ratioP1;P1;durP2;ratioP2;P2;SDS_P1;SDS_P2;PMS_P1;PMS_P2;Temp;Humidity;BMP_temperature;BMP_pressure;BME280_temperature;BME280_humidity;BME280_pressure;Samples;Min_cycle;Max_cycle;Signal;HPM_P1;HPM_P2
2022/10/19 00:02:02;;;;;;;22.77;10.05;;;12.90;99.90;;;;;;5035101;28;20032;-72
2022/10/19 00:04:28;;;;;;;26.60;10.30;;;12.90;99.90;;;;;;5053299;28;20036;-72
2022/10/19 00:06:53;;;;;;;32.83;11.32;;;12.90;99.90;;;;;;5052942;28;20029;-72
2022/10/19 00:09:19;;;;;;;24.38;10.80;;;12.90;99.90;;;;;;5034865;28;20095;-72
2022/10/19 00:11:48;;;;;;;21.02;9.35;;;12.90;99.90;;;;;;5035824;28;20112;-73
2022/10/19 00:14:17;;;;;;;21.48;8.70;;;12.90;99.90;;;;;;5034864;28;20373;-72
2022/10/19 00:16:44;;;;;;;22.67;9.05;;;12.80;99.90;;;;;;5035191;28;20033;-72
2022/10/19 00:19:17;;;;;;;20.23;9.85;;;12.80;99.90;;;;;;5034333;28;20025;-72
2022/10/19 00:21:43;;;;;;;22.90;9.10;;;12.80;99.90;;;;;;5038138;28;20067;-73
2022/10/19 00:24:08;;;;;;;19.75;8.60;;;12.80;99.90;;;;;;5056547;28;20025;-73
2022/10/19 00:26:34;;;;;;;23.40;9.80;;;12.80;99.90;;;;;;5038259;28;20021;-73
2022/10/19 00:29:00;;;;;;;17.17;9.27;;;12.80;99.90;;;;;;5056127;28;20032;-72
2022/10/19 00:31:26;;;;;;;19.15;10.48;;;12.70;99.90;;;;;;5038184;28;20025;-72
2022/10/19 00:33:52;;;;;;;22.65;9.55;;;12.80;99.90;;;;;;5055973;28;20029;-72
2022/10/19 00:36:23;;;;;;;20.88;10.15;;;12.80;99.90;;;;;;5055864;28;20105;-72
2022/10/19 00:38:49;;;;;;;20.10;9.87;;;12.70;99.90;;;;;;5056294;28;20033;-72
2022/10/19 00:41:16;;;;;;;29.27;10.68;;;12.80;99.90;;;;;;5055884;28;20070;-73
2022/10/19 00:44:25;;;;;;;21.85;10.23;;;12.70;99.90;;;;;;5037914;28;20082;-73
2022/10/19 00:46:52;;;;;;;21.80;11.10;;;12.40;99.90;;;;;;5037671;28;20387;-73
2022/10/19 00:49:17;;;;;;;20.42;9.95;;;12.30;99.90;;;;;;5056039;28;20017;-73
2022/10/19 00:51:47;;;;;;;25.20;9.88;;;12.40;99.90;;;;;;5037698;28;20098;-73
2022/10/19 00:54:14;;;;;;;21.55;10.13;;;12.20;99.90;;;;;;5038154;28;20052;-73
2022/10/19 00:56:41;;;;;;;29.10;10.00;;;12.00;99.90;;;;;;5055483;28;20036;-73
2022/10/19 00:59:08;;;;;;;24.60;9.88;;;12.10;99.90;;;;;;5055561;28;20067;-73
2022/10/19 01:01:34;;;;;;;21.92;8.57;;;12.10;99.90;;;;;;5037893;28;20021;-73
2022/10/19 01:04:01;;;;;;;20.92;10.45;;;12.20;99.90;;;;;;5037452;28;20032;-74
2022/10/19 01:06:27;;;;;;;17.40;9.25;;;12.20;99.90;;;;;;5055451;28;20104;-73
2022/10/19 01:08:53;;;;;;;23.02;8.85;;;12.00;99.90;;;;;;5037697;28;20032;-73
2022/10/19 01:11:36;;;;;;;17.65;9.20;;;12.00;99.90;;;;;;5055260;28;20021;-72
2022/10/19 01:14:38;;;;;;;18.25;8.60;;;12.00;99.90;;;;;;5055604;28;20025;-72
2022/10/19 01:17:13;;;;;;;;;;;12.00;99.90;;;;;;5037699;28;20031;-72
2022/10/19 01:20:06;;;;;;;20.70;9.02;;;11.90;99.90;;;;;;5037272;28;19908;-74
2022/10/19 01:22:38;;;;;;;26.02;8.68;;;12.00;99.90;;;;;;5037103;28;20491;-74
2022/10/19 01:25:29;;;;;;;28.92;9.50;;;12.00;99.90;;;;;;5037305;28;20111;-74
2022/10/19 01:28:28;;;;;;;25.10;9.70;;;11.90;99.90;;;;;;5055043;28;20026;-74
2022/10/19 01:31:22;;;;;;;17.92;8.32;;;11.90;99.90;;;;;;5036805;28;20115;-75
2022/10/19 01:34:09;;;;;;;22.13;8.65;;;11.70;99.90;;;;;;5036983;28;20489;-74
2022/10/19 01:36:56;;;;;;;27.05;8.38;;;11.90;99.90;;;;;;5037029;28;20036;-74
2022/10/19 01:39:51;;;;;;;31.30;10.10;;;11.80;99.90;;;;;;5037760;28;20067;-74
2022/10/19 01:42:27;;;;;;;26.08;8.65;;;11.90;99.90;;;;;;5036833;28;20124;-74
2022/10/19 01:45:20;;;;;;;29.38;8.43;;;11.80;99.90;;;;;;5037409;28;20025;-74
2022/10/19 01:47:54;;;;;;;18.90;8.27;;;11.70;99.90;;;;;;5054637;28;20025;-74
2022/10/19 01:50:29;;;;;;;16.92;7.22;;;11.80;99.90;;;;;;5036698;28;20116;-74
2022/10/19 01:52:56;;;;;;;17.23;8.05;;;11.60;99.90;;;;;;5054484;28;20021;-74
2022/10/19 01:55:24;;;;;;;19.15;7.80;;;11.60;99.90;;;;;;5036824;28;20028;-75
2022/10/19 01:57:59;;;;;;;35.22;7.05;;;11.60;99.90;;;;;;5036523;28;20025;-74
2022/10/19 02:00:26;;;;;;;12.48;6.65;;;11.60;99.90;;;;;;5037536;28;20372;-72
2022/10/19 02:02:53;;;;;;;15.75;7.35;;;11.60;99.90;;;;;;5036275;28;20395;-71
2022/10/19 02:05:23;;;;;;;15.98;6.65;;;11.70;99.90;;;;;;5054246;28;20033;-71
2022/10/19 02:07:53;;;;;;;14.57;7.13;;;11.70;99.90;;;;;;5036386;28;20029;-71
2022/10/19 02:10:20;;;;;;;16.98;7.10;;;11.60;99.90;;;;;;5036428;28;20075;-71
2022/10/19 02:12:46;;;;;;;34.78;8.15;;;11.70;99.90;;;;;;5053975;28;20124;-71
2022/10/19 02:15:17;;;;;;;14.93;6.47;;;11.40;99.90;;;;;;5054120;28;20025;-71
2022/10/19 02:17:46;;;;;;;18.13;6.95;;;11.30;99.90;;;;;;5054086;28;20095;-74
2022/10/19 02:20:13;;;;;;;23.83;8.00;;;11.40;99.90;;;;;;5053920;28;20440;-75
2022/10/19 02:22:39;;;;;;;13.98;6.90;;;11.40;99.90;;;;;;5054180;28;20025;-74
2022/10/19 02:25:05;;;;;;;29.73;7.45;;;11.40;99.90;;;;;;5036056;28;20017;-74
2022/10/19 02:27:32;;;;;;;23.63;7.80;;;11.40;99.90;;;;;;5035959;28;20032;-74
2022/10/19 02:29:58;;;;;;;15.60;6.95;;;11.20;99.90;;;;;;5036847;28;20048;-73
2022/10/19 02:32:25;;;;;;;16.25;7.35;;;11.40;99.90;;;;;;5053936;28;20079;-73
2022/10/19 02:34:50;;;;;;;17.23;7.38;;;11.50;99.90;;;;;;5035868;28;20025;-73
2022/10/19 02:37:16;;;;;;;14.38;7.07;;;11.30;99.90;;;;;;5035748;28;20117;-73
2022/10/19 02:39:56;;;;;;;23.23;7.22;;;11.40;99.90;;;;;;5036186;28;20052;-73
2022/10/19 02:42:28;;;;;;;30.10;7.50;;;11.40;99.90;;;;;;5035720;28;20025;-73
2022/10/19 02:45:12;;;;;;;29.98;7.93;;;11.50;99.90;;;;;;5053601;28;20024;-73
2022/10/19 02:47:48;;;;;;;21.05;7.45;;;11.30;99.90;;;;;;5035671;28;20017;-74
2022/10/19 02:50:15;;;;;;;19.30;7.00;;;11.50;99.90;;;;;;5054239;28;20021;-74
2022/10/19 02:52:41;;;;;;;17.83;7.15;;;11.50;99.90;;;;;;5035854;28;20025;-75
2022/10/19 02:55:07;;;;;;;18.63;6.55;;;11.40;99.90;;;;;;5035925;28;20490;-73
2022/10/19 02:57:33;;;;;;;19.52;6.80;;;11.40;99.90;;;;;;5035464;28;20032;-72
2022/10/19 02:59:58;;;;;;;17.00;7.20;;;11.30;99.90;;;;;;5035875;28;20017;-72
2022/10/19 03:02:24;;;;;;;18.95;7.50;;;11.30;99.90;;;;;;5061141;23;20033;-72
2022/10/19 03:04:50;;;;;;;15.63;7.20;;;11.40;99.90;;;;;;5051403;28;20041;-74
2022/10/19 03:07:17;;;;;;;52.45;7.85;;;11.30;99.90;;;;;;5053318;28;20032;-74
2022/10/19 03:09:43;;;;;;;24.65;6.70;;;11.30;99.90;;;;;;5053318;28;20036;-75
2022/10/19 03:12:09;;;;;;;13.35;6.50;;;11.10;99.90;;;;;;5035812;28;20021;-74
2022/10/19 03:14:35;;;;;;;17.65;6.60;;;11.10;99.90;;;;;;5053753;28;20033;-74
2022/10/19 03:17:00;;;;;;;16.75;6.38;;;10.90;99.90;;;;;;5073163;28;20025;-73
2022/10/19 03:19:26;;;;;;;22.05;6.57;;;11.00;99.90;;;;;;5073520;28;20032;-73
2022/10/19 03:21:52;;;;;;;26.02;6.53;;;10.80;99.90;;;;;;5055446;28;20119;-73
2022/10/19 03:24:17;;;;;;;32.58;6.97;;;10.90;99.90;;;;;;5055194;28;20048;-73
2022/10/19 03:26:43;;;;;;;10.77;5.18;;;11.00;99.90;;;;;;5055465;28;20028;-73
2022/10/19 03:29:08;;;;;;;17.08;6.28;;;11.00;99.90;;;;;;5056335;28;20075;-73
2022/10/19 03:31:34;;;;;;;11.23;6.20;;;11.10;99.90;;;;;;5055149;28;20025;-73
2022/10/19 03:34:00;;;;;;;11.27;5.93;;;11.20;99.90;;;;;;5055013;28;20024;-73
2022/10/19 03:36:32;;;;;;;11.45;5.40;;;11.20;99.90;;;;;;5055377;28;20033;-74
2022/10/19 03:39:02;;;;;;;28.77;7.07;;;11.10;99.90;;;;;;5055156;28;20021;-74
2022/10/19 03:41:31;;;;;;;11.88;6.57;;;11.10;99.90;;;;;;5055759;28;20020;-72
2022/10/19 03:43:57;;;;;;;17.10;6.85;;;11.10;99.90;;;;;;5072837;28;20025;-72
2022/10/19 03:46:23;;;;;;;17.95;6.05;;;11.20;99.90;;;;;;5055259;28;20027;-73
2022/10/19 03:48:49;;;;;;;26.23;6.78;;;11.10;99.90;;;;;;5073206;28;20069;-73
2022/10/19 03:51:17;;;;;;;15.88;6.05;;;11.20;99.90;;;;;;5072867;28;20395;-73
2022/10/19 03:53:43;;;;;;;18.92;6.38;;;11.20;99.90;;;;;;5054875;28;20032;-73
2022/10/19 03:56:17;;;;;;;14.43;6.00;;;11.20;99.90;;;;;;5075414;28;20035;-73
2022/10/19 03:58:44;;;;;;;13.43;6.10;;;11.30;99.90;;;;;;5059029;28;20012;-73
2022/10/19 04:01:17;;;;;;;24.08;6.07;;;11.30;99.90;;;;;;5058872;28;20084;-73
2022/10/19 04:03:43;;;;;;;24.05;5.70;;;11.30;99.90;;;;;;5076752;28;20067;-73
2022/10/19 04:06:12;;;;;;;20.25;5.57;;;11.40;99.90;;;;;;5058686;28;20060;-73
2022/10/19 04:08:37;;;;;;;17.40;5.95;;;11.30;99.90;;;;;;5058785;28;20109;-73
2022/10/19 04:11:09;;;;;;;14.13;5.88;;;11.20;99.90;;;;;;5058532;28;20078;-73
2022/10/19 04:13:35;;;;;;;26.42;6.70;;;11.10;99.90;;;;;;5076723;28;20460;-73
2022/10/19 04:16:01;;;;;;;31.48;6.45;;;11.20;99.90;;;;;;5058733;28;20028;-74
2022/10/19 04:18:26;;;;;;;13.73;5.15;;;11.10;99.90;;;;;;5058463;28;20023;-73
2022/10/19 04:21:01;;;;;;;11.80;5.38;;;11.10;99.90;;;;;;5076229;28;20028;-73
2022/10/19 04:23:28;;;;;;;11.52;6.25;;;11.10;99.90;;;;;;5058315;28;20024;-73
2022/10/19 04:26:06;;;;;;;29.48;5.68;;;11.10;99.90;;;;;;5076070;28;20031;-73
2022/10/19 04:28:33;;;;;;;11.30;5.82;;;10.90;99.90;;;;;;5059085;28;20223;-73
2022/10/19 04:31:03;;;;;;;16.48;6.03;;;10.90;99.90;;;;;;5076065;28;20032;-73
2022/10/19 04:33:28;;;;;;;12.18;5.72;;;11.00;99.90;;;;;;5076174;28;20032;-72
2022/10/19 04:36:03;;;;;;;14.88;6.22;;;10.90;99.90;;;;;;5076004;28;20036;-73
2022/10/19 04:38:29;;;;;;;24.88;5.93;;;10.80;99.90;;;;;;5058149;28;20051;-74
2022/10/19 04:40:55;;;;;;;21.10;6.32;;;10.60;99.90;;;;;;5058008;28;20107;-74
2022/10/19 04:43:21;;;;;;;17.85;5.28;;;10.60;99.90;;;;;;5057874;28;20038;-73
2022/10/19 04:45:47;;;;;;;13.35;5.75;;;10.60;99.90;;;;;;5076083;28;20028;-74
2022/10/19 04:48:12;;;;;;;8.73;5.07;;;10.70;99.90;;;;;;5057862;28;20074;-74
2022/10/19 04:50:38;;;;;;;11.20;5.30;;;10.70;99.90;;;;;;5076051;28;20078;-74
2022/10/19 04:53:03;;;;;;;12.43;5.85;;;10.70;99.90;;;;;;5058148;28;20025;-74
2022/10/19 04:55:29;;;;;;;12.10;5.68;;;10.60;99.90;;;;;;5057630;28;20097;-74
2022/10/19 04:57:55;;;;;;;11.02;5.38;;;10.60;99.90;;;;;;5057973;28;20055;-74
2022/10/19 05:00:20;;;;;;;10.55;5.45;;;10.60;99.90;;;;;;5057647;28;20016;-74
2022/10/19 05:02:46;;;;;;;17.70;5.72;;;10.50;99.90;;;;;;5057383;28;20025;-73
2022/10/19 05:05:13;;;;;;;13.18;5.80;;;10.50;99.90;;;;;;5075528;28;20118;-74
2022/10/19 05:07:39;;;;;;;12.93;5.72;;;10.50;99.90;;;;;;5056170;28;20024;-73
2022/10/19 05:10:06;;;;;;;10.45;5.82;;;10.30;99.90;;;;;;5058354;28;20023;-72
2022/10/19 05:12:33;;;;;;;12.15;5.15;;;10.20;99.90;;;;;;5057204;28;20111;-72
2022/10/19 05:14:59;;;;;;;10.90;6.10;;;10.20;99.90;;;;;;5057407;28;20025;-72
2022/10/19 05:17:24;;;;;;;13.48;5.50;;;10.30;99.90;;;;;;5057195;28;20030;-72
2022/10/19 05:19:50;;;;;;;11.80;5.88;;;10.20;99.90;;;;;;5058171;28;20124;-72
2022/10/19 05:22:16;;;;;;;14.70;5.93;;;10.10;99.90;;;;;;5057544;28;20021;-72
2022/10/19 05:24:41;;;;;;;10.15;5.35;;;9.90;99.90;;;;;;5057059;28;20012;-72
2022/10/19 05:27:07;;;;;;;13.15;5.80;;;10.00;99.90;;;;;;5057501;28;20036;-72
2022/10/19 05:29:32;;;;;;;10.98;6.00;;;10.00;99.90;;;;;;5075050;28;20024;-72
2022/10/19 05:31:58;;;;;;;10.32;5.35;;;10.00;99.90;;;;;;5056937;28;20091;-74
2022/10/19 05:34:24;;;;;;;10.80;5.32;;;10.20;99.90;;;;;;5056840;28;20025;-73
2022/10/19 05:36:49;;;;;;;12.02;5.95;;;10.20;99.90;;;;;;5056873;28;20031;-73
2022/10/19 05:39:16;;;;;;;8.60;4.68;;;10.40;99.90;;;;;;5057856;28;20016;-73
2022/10/19 05:41:43;;;;;;;10.38;5.43;;;10.40;99.90;;;;;;5057142;28;20031;-73
2022/10/19 05:44:14;;;;;;;9.95;5.35;;;10.30;99.90;;;;;;5057085;28;20134;-73
2022/10/19 05:46:40;;;;;;;16.02;5.80;;;10.20;99.90;;;;;;5057060;28;20028;-74
2022/10/19 05:49:06;;;;;;;9.80;5.50;;;10.20;99.90;;;;;;5057115;28;20029;-74
2022/10/19 05:51:32;;;;;;;19.35;5.35;;;10.20;99.90;;;;;;5056865;28;20020;-74
2022/10/19 05:53:57;;;;;;;9.88;4.70;;;10.30;99.90;;;;;;5074568;28;20059;-74
2022/10/19 05:56:25;;;;;;;13.52;5.15;;;10.20;99.90;;;;;;5056519;28;20031;-74
2022/10/19 05:58:51;;;;;;;8.45;4.95;;;10.10;99.90;;;;;;5056542;28;20084;-73
2022/10/19 06:01:18;;;;;;;10.80;5.35;;;10.20;99.90;;;;;;5056490;28;20089;-73
2022/10/19 06:03:45;;;;;;;10.73;4.82;;;10.30;99.90;;;;;;5056323;28;20032;-73
2022/10/19 06:06:10;;;;;;;9.98;5.20;;;10.20;99.90;;;;;;5057190;28;20028;-73
2022/10/19 06:08:37;;;;;;;11.93;5.25;;;10.20;99.90;;;;;;5074209;28;20024;-74
2022/10/19 06:11:11;;;;;;;13.60;5.45;;;10.30;99.90;;;;;;5056114;28;20016;-73
2022/10/19 06:13:38;;;;;;;13.55;5.03;;;10.40;99.90;;;;;;5074079;28;20115;-73
2022/10/19 06:16:06;;;;;;;9.85;5.60;;;10.40;99.90;;;;;;5056138;28;20036;-74
2022/10/19 06:18:32;;;;;;;10.93;5.43;;;10.60;99.90;;;;;;5073530;28;20028;-74
2022/10/19 06:21:10;;;;;;;11.13;5.45;;;10.60;99.90;;;;;;5074074;28;20021;-73
2022/10/19 06:23:36;;;;;;;11.32;5.50;;;10.50;99.90;;;;;;5057155;28;20363;-73
2022/10/19 06:26:04;;;;;;;13.18;5.55;;;10.50;99.90;;;;;;5056310;28;20115;-73
2022/10/19 06:28:29;;;;;;;11.23;4.82;;;10.60;99.90;;;;;;5055972;28;20029;-73
2022/10/19 06:30:57;;;;;;;14.13;6.28;;;10.50;99.90;;;;;;5073849;28;20031;-73
2022/10/19 06:33:22;;;;;;;12.20;5.43;;;10.50;99.90;;;;;;5056425;28;20035;-73
2022/10/19 06:35:48;;;;;;;12.88;5.15;;;10.50;99.90;;;;;;5073990;28;20028;-73
2022/10/19 06:38:13;;;;;;;10.65;5.88;;;10.50;99.90;;;;;;5055855;28;20035;-73
2022/10/19 06:40:39;;;;;;;12.90;4.95;;;10.60;99.90;;;;;;5073686;28;20012;-74
2022/10/19 06:43:05;;;;;;;12.70;5.30;;;10.60;99.90;;;;;;5073633;28;20059;-74
2022/10/19 06:45:30;;;;;;;12.32;5.30;;;10.50;99.90;;;;;;5055955;28;20035;-74
2022/10/19 06:47:56;;;;;;;11.30;4.70;;;10.50;99.90;;;;;;5055658;28;20095;-73
2022/10/19 06:50:21;;;;;;;10.43;5.25;;;10.30;99.90;;;;;;5055567;28;20425;-73
2022/10/19 06:52:47;;;;;;;14.40;5.13;;;10.40;99.90;;;;;;5073426;28;20082;-73
2022/10/19 06:55:13;;;;;;;8.68;5.18;;;10.50;99.90;;;;;;5073630;28;20067;-73
2022/10/19 06:57:39;;;;;;;12.70;4.75;;;10.60;99.90;;;;;;5055514;28;20021;-75
2022/10/19 07:00:08;;;;;;;9.23;5.22;;;10.60;99.90;;;;;;5056686;28;20023;-75
2022/10/19 07:02:33;;;;;;;8.18;5.10;;;10.50;99.90;;;;;;5073517;28;20028;-74
2022/10/19 07:04:59;;;;;;;18.02;5.57;;;10.50;99.90;;;;;;5056183;28;20089;-74
2022/10/19 07:07:24;;;;;;;7.80;4.90;;;10.50;99.90;;;;;;5056145;28;20059;-74
2022/10/19 07:09:50;;;;;;;12.52;4.95;;;10.60;99.90;;;;;;5056197;28;20028;-74
2022/10/19 07:12:16;;;;;;;11.43;5.10;;;10.70;99.90;;;;;;5073304;28;20056;-75
2022/10/19 07:14:41;;;;;;;10.30;5.35;;;10.60;99.90;;;;;;5055485;28;20020;-75
2022/10/19 07:17:08;;;;;;;12.23;5.40;;;10.60;99.90;;;;;;5073133;28;20084;-75
2022/10/19 07:19:34;;;;;;;16.25;5.78;;;10.60;99.90;;;;;;5055971;28;20029;-75
2022/10/19 07:22:00;;;;;;;7.85;5.32;;;10.70;99.90;;;;;;5073168;28;20103;-75
2022/10/19 07:24:26;;;;;;;11.32;5.43;;;10.70;99.90;;;;;;5055486;28;20112;-74
2022/10/19 07:26:51;;;;;;;13.20;6.13;;;10.80;99.90;;;;;;5055206;28;20497;-74
2022/10/19 07:29:17;;;;;;;10.45;4.93;;;10.80;99.90;;;;;;5073101;28;20050;-74
2022/10/19 07:31:42;;;;;;;9.55;6.03;;;10.80;99.90;;;;;;5058890;28;20024;-74
2022/10/19 07:34:12;;;;;;;14.50;5.93;;;10.80;99.90;;;;;;5059165;28;20027;-74
2022/10/19 07:36:39;;;;;;;12.00;5.57;;;10.90;99.90;;;;;;5059426;28;20039;-74
2022/10/19 07:39:06;;;;;;;13.23;6.80;;;10.80;99.90;;;;;;5077108;28;20025;-74
2022/10/19 07:41:33;;;;;;;16.92;6.30;;;10.90;99.90;;;;;;5059670;28;20075;-74
2022/10/19 07:44:00;;;;;;;18.27;6.53;;;11.00;99.90;;;;;;5059032;28;20433;-75
2022/10/19 07:46:32;;;;;;;12.95;6.03;;;11.00;99.90;;;;;;5076925;28;20111;-74
2022/10/19 07:48:58;;;;;;;11.52;5.88;;;10.90;99.90;;;;;;5058950;28;20047;-74
2022/10/19 07:51:25;;;;;;;12.18;6.00;;;11.00;99.90;;;;;;5059025;28;20042;-74
2022/10/19 07:53:51;;;;;;;14.63;6.38;;;11.00;99.90;;;;;;5059740;28;20040;-74
2022/10/19 07:56:23;;;;;;;11.98;6.07;;;11.00;99.90;;;;;;5076760;28;20024;-74
2022/10/19 07:58:52;;;;;;;12.13;5.68;;;11.00;99.90;;;;;;5076925;28;20023;-74
2022/10/19 08:01:20;;;;;;;10.27;5.80;;;11.10;99.90;;;;;;5058845;28;20028;-74
2022/10/19 08:03:52;;;;;;;12.13;5.95;;;11.10;99.90;;;;;;5076711;28;20075;-74
2022/10/19 08:06:20;;;;;;;;;;;11.00;99.90;;;;;;5059450;28;20391;-74
2022/10/19 08:08:47;;;;;;;14.27;6.25;;;11.10;99.90;;;;;;5076895;28;19959;-74
2022/10/19 08:11:19;;;;;;;12.20;6.63;;;11.00;99.90;;;;;;5058524;28;20028;-74
2022/10/19 08:13:45;;;;;;;8.40;5.53;;;11.10;99.90;;;;;;5076497;28;20029;-75
2022/10/19 08:16:31;;;;;;;11.32;6.38;;;11.20;99.90;;;;;;5058493;28;20032;-74
2022/10/19 08:19:00;;;;;;;13.52;5.65;;;11.40;99.90;;;;;;5076394;28;20024;-74
2022/10/19 08:21:27;;;;;;;11.50;5.85;;;11.50;99.90;;;;;;5058663;28;20027;-74
2022/10/19 08:23:53;;;;;;;12.30;6.25;;;11.60;99.90;;;;;;5058951;28;20024;-74
2022/10/19 08:26:19;;;;;;;11.02;6.40;;;11.70;99.90;;;;;;5058304;28;20081;-75
2022/10/19 08:28:44;;;;;;;10.90;6.53;;;11.80;99.90;;;;;;5076672;28;20107;-75
2022/10/19 08:31:13;;;;;;;12.68;6.00;;;11.80;99.90;;;;;;5058586;28;20123;-74
2022/10/19 08:33:38;;;;;;;14.05;5.65;;;11.80;99.90;;;;;;5058163;28;20025;-74
2022/10/19 08:36:06;;;;;;;14.88;6.30;;;11.80;99.90;;;;;;5075992;28;20094;-74
2022/10/19 08:38:31;;;;;;;14.07;6.10;;;11.90;99.90;;;;;;5076329;28;20024;-74
2022/10/19 08:41:03;;;;;;;12.57;7.15;;;11.90;99.90;;;;;;5057741;28;20021;-74
2022/10/19 08:43:37;;;;;;;11.73;6.53;;;12.00;99.90;;;;;;5058371;28;20497;-74
2022/10/19 08:46:22;;;;;;;13.32;6.93;;;12.00;99.90;;;;;;5075856;28;20036;-74
2022/10/19 08:48:47;;;;;;;15.80;5.93;;;12.00;99.90;;;;;;5058307;28;20016;-74
2022/10/19 08:51:13;;;;;;;20.80;7.75;;;12.00;99.90;;;;;;5057885;28;20036;-74
2022/10/19 08:53:41;;;;;;;13.52;6.55;;;12.10;99.90;;;;;;5058072;28;20081;-74
2022/10/19 08:56:26;;;;;;;11.68;7.47;;;12.10;99.90;;;;;;5057651;28;20498;-74
2022/10/19 08:59:07;;;;;;;13.30;6.32;;;12.20;99.90;;;;;;5076028;28;20073;-75
2022/10/19 09:01:53;;;;;;;14.13;6.65;;;12.10;99.90;;;;;;5058212;28;20165;-74
2022/10/19 09:04:36;;;;;;;15.18;7.25;;;12.30;99.90;;;;;;5058280;28;20028;-76
2022/10/19 09:07:22;;;;;;;14.95;6.82;;;12.30;99.90;;;;;;5058187;28;20469;-75
2022/10/19 09:10:03;;;;;;;19.73;7.60;;;12.40;99.90;;;;;;5057593;28;20063;-73
2022/10/19 09:12:46;;;;;;;18.48;6.53;;;12.50;99.90;;;;;;5057577;28;20021;-73
2022/10/19 09:15:24;;;;;;;15.88;7.05;;;12.60;99.90;;;;;;5075643;28;20024;-73
2022/10/19 09:17:49;;;;;;;16.25;6.75;;;12.70;99.90;;;;;;5058304;28;20020;-73
2022/10/19 09:20:20;;;;;;;11.80;6.55;;;12.70;99.90;;;;;;5058387;28;20108;-73
2022/10/19 09:22:59;;;;;;;12.30;6.57;;;12.70;99.90;;;;;;5057477;28;20025;-73
2022/10/19 09:25:25;;;;;;;12.52;7.07;;;12.80;99.90;;;;;;5057281;28;20020;-73
2022/10/19 09:28:24;;;;;;;15.18;7.05;;;12.70;99.90;;;;;;5057112;28;20036;-73
2022/10/19 09:30:53;;;;;;;13.18;7.25;;;12.80;99.90;;;;;;4977408;28;20081;-73
2022/10/19 09:33:33;;;;;;;14.98;6.93;;;12.90;99.90;;;;;;4977562;28;20030;-73
2022/10/19 09:36:02;;;;;;;11.85;7.00;;;13.10;99.90;;;;;;4994098;28;20121;-73
2022/10/19 09:38:30;;;;;;;13.77;6.82;;;13.10;99.90;;;;;;4977670;28;20113;-73
2022/10/19 09:40:57;;;;;;;16.33;6.95;;;13.20;99.90;;;;;;4993569;28;20022;-73
2022/10/19 09:43:25;;;;;;;16.40;7.10;;;13.20;99.90;;;;;;4977707;28;20022;-73
2022/10/19 09:46:05;;;;;;;13.93;6.30;;;13.40;99.90;;;;;;4977092;28;20037;-73
2022/10/19 09:48:51;;;;;;;19.17;7.18;;;13.50;99.90;;;;;;4993656;28;20045;-73
2022/10/19 09:51:18;;;;;;;12.25;6.63;;;13.50;99.90;;;;;;4993304;28;20038;-73
2022/10/19 09:53:45;;;;;;;16.50;7.45;;;13.60;99.90;;;;;;4976234;28;20124;-73
2022/10/19 09:56:23;;;;;;;11.63;6.95;;;13.70;99.90;;;;;;4976874;28;20038;-72
2022/10/19 09:58:56;;;;;;;14.18;6.93;;;13.90;99.90;;;;;;4993530;28;20033;-72
2022/10/19 10:01:39;;;;;;;14.85;6.85;;;14.00;99.90;;;;;;4993360;28;20502;-72
2022/10/19 10:04:07;;;;;;;10.18;6.20;;;14.10;99.90;;;;;;4992924;28;20034;-72
2022/10/19 10:06:37;;;;;;;11.98;5.55;;;14.20;99.90;;;;;;4997822;28;20031;-72
2022/10/19 10:09:03;;;;;;;10.65;5.95;;;14.30;99.90;;;;;;5074747;28;20509;-72
2022/10/19 10:11:35;;;;;;;11.95;5.25;;;14.40;99.90;;;;;;5056928;28;20021;-72
2022/10/19 10:14:19;;;;;;;10.68;6.72;;;14.60;99.90;;;;;;5056659;28;20112;-73
2022/10/19 10:16:45;;;;;;;16.98;6.28;;;14.80;99.90;;;;;;5057269;28;20028;-73
2022/10/19 10:19:13;;;;;;;11.75;6.28;;;14.90;99.90;;;;;;5056427;28;20020;-72
2022/10/19 10:21:46;;;;;;;12.38;5.32;;;15.00;99.90;;;;;;5056184;28;20021;-72
2022/10/19 10:24:12;;;;;;;10.38;5.45;;;15.10;99.90;;;;;;5056051;28;20027;-72
2022/10/19 10:26:44;;;;;;;13.60;5.55;;;15.30;99.90;;;;;;5056375;28;20028;-72
2022/10/19 10:29:20;;;;;;;;;;;15.30;99.90;;;;;;5074286;28;20021;-72
2022/10/19 10:31:50;;;;;;;9.95;4.43;;;15.40;99.90;;;;;;5056462;28;19911;-72
2022/10/19 10:34:28;;;;;;;7.32;4.75;;;15.50;99.90;;;;;;5056144;28;20501;-73
2022/10/19 10:36:54;;;;;;;8.82;4.10;;;15.50;99.90;;;;;;5074565;28;20036;-72
2022/10/19 10:39:19;;;;;;;8.68;4.65;;;15.60;99.90;;;;;;5056064;28;20021;-72
2022/10/19 10:41:47;;;;;;;9.68;2.83;;;15.60;99.90;;;;;;5055804;28;20025;-72
2022/10/19 10:44:20;;;;;;;7.93;2.08;;;15.80;99.90;;;;;;5056461;28;20031;-72
2022/10/19 10:46:58;;;;;;;7.93;2.50;;;15.90;99.90;;;;;;5074157;28;20501;-72
2022/10/19 10:49:27;;;;;;;13.00;2.78;;;15.80;99.90;;;;;;5056587;28;20032;-72
2022/10/19 10:51:59;;;;;;;6.22;2.15;;;15.90;99.90;;;;;;5055678;28;20155;-72
2022/10/19 10:54:27;;;;;;;3.30;2.22;;;15.80;99.90;;;;;;5055513;28;20025;-72
2022/10/19 10:57:11;;;;;;;6.57;2.28;;;15.90;99.90;;;;;;5073465;28;20111;-73
2022/10/19 10:59:40;;;;;;;4.32;1.90;;;16.20;99.90;;;;;;5055557;28;20027;-72
2022/10/19 11:02:37;;;;;;;6.32;1.90;;;16.30;99.90;;;;;;5055499;28;20024;-72
2022/10/19 11:05:29;;;;;;;8.10;2.20;;;16.40;99.90;;;;;;5031949;28;20041;-72
2022/10/19 11:08:06;;;;;;;6.75;2.40;;;16.40;99.90;;;;;;5055506;28;20027;-73
2022/10/19 11:10:38;;;;;;;6.15;2.40;;;16.50;99.90;;;;;;5073421;28;20040;-73
2022/10/19 11:13:13;;;;;;;7.85;2.38;;;16.80;99.90;;;;;;5055300;28;20020;-72
2022/10/19 11:16:12;;;;;;;5.25;1.77;;;16.70;99.90;;;;;;5055191;28;20029;-72
2022/10/19 11:18:46;;;;;;;7.70;2.28;;;16.70;99.90;;;;;;5055254;28;20047;-72
2022/10/19 11:21:40;;;;;;;9.52;2.10;;;16.90;99.90;;;;;;5055309;28;20446;-72
2022/10/19 11:24:30;;;;;;;3.70;1.98;;;16.80;99.90;;;;;;5073097;28;20024;-73
2022/10/19 11:27:13;;;;;;;8.25;2.22;;;17.00;99.90;;;;;;5073255;28;20055;-73
2022/10/19 11:30:12;;;;;;;7.30;2.45;;;17.20;99.90;;;;;;5055987;28;20070;-73
2022/10/19 11:33:06;;;;;;;7.35;1.85;;;17.00;99.90;;;;;;5055862;28;20043;-73
2022/10/19 11:35:51;;;;;;;5.63;2.08;;;17.00;99.90;;;;;;5072983;28;20101;-73
2022/10/19 11:38:45;;;;;;;4.53;1.80;;;17.30;99.90;;;;;;5055073;28;20021;-72
2022/10/19 11:41:31;;;;;;;6.07;1.70;;;17.30;99.90;;;;;;5055037;28;20024;-72
2022/10/19 11:44:20;;;;;;;5.18;1.67;;;17.60;99.90;;;;;;5072936;28;20472;-72
2022/10/19 11:47:17;;;;;;;5.60;2.10;;;17.80;99.90;;;;;;5055071;28;20028;-73
2022/10/19 11:50:09;;;;;;;11.20;2.15;;;17.80;99.90;;;;;;5074229;28;20036;-73
2022/10/19 11:52:53;;;;;;;;;;;17.50;99.90;;;;;;5055386;28;20031;-73
2022/10/19 11:56:01;;;;;;;7.10;1.77;;;17.70;99.90;;;;;;5054876;28;19912;-73
2022/10/19 11:58:37;;;;;;;20.15;2.70;;;17.90;99.90;;;;;;5056132;28;20027;-74
2022/10/19 12:01:27;;;;;;;9.43;2.65;;;17.90;99.90;;;;;;5072941;28;20181;-74
2022/10/19 12:04:05;;;;;;;5.22;2.00;;;17.70;99.90;;;;;;5054741;28;20113;-74
2022/10/19 12:06:37;;;;;;;8.80;2.03;;;17.60;99.90;;;;;;5054872;28;20029;-76
2022/10/19 12:09:50;;;;;;;4.05;1.60;;;17.70;99.90;;;;;;5054957;28;20028;-74
2022/10/19 12:12:33;;;;;;;4.57;1.65;;;17.80;99.90;;;;;;4975513;28;20046;-74
2022/10/19 12:15:11;;;;;;;5.95;1.60;;;18.00;99.90;;;;;;4991409;28;20041;-74
2022/10/19 12:17:40;;;;;;;5.82;1.33;;;18.00;99.90;;;;;;4978239;28;20030;-74
2022/10/19 12:20:16;;;;;;;6.10;1.55;;;18.00;99.90;;;;;;4978685;28;20022;-73
2022/10/19 12:22:42;;;;;;;6.97;1.90;;;18.10;99.90;;;;;;4978892;28;20452;-73
2022/10/19 12:25:13;;;;;;;3.47;1.30;;;18.30;99.90;;;;;;4978720;28;20022;-74
2022/10/19 12:27:40;;;;;;;7.25;1.60;;;18.30;99.90;;;;;;4978687;28;20042;-74
2022/10/19 12:30:07;;;;;;;4.03;1.80;;;18.50;99.90;;;;;;4978558;28;20069;-74
2022/10/19 12:32:56;;;;;;;6.45;1.60;;;18.30;99.90;;;;;;4978349;28;20420;-73
2022/10/19 12:35:47;;;;;;;6.47;1.45;;;18.50;99.90;;;;;;4994867;28;20042;-73
2022/10/19 12:38:46;;;;;;;9.30;2.20;;;18.70;99.90;;;;;;4978397;28;20030;-73
2022/10/19 12:41:30;;;;;;;8.02;2.42;;;18.60;99.90;;;;;;4978522;28;20062;-73
2022/10/19 12:44:30;;;;;;;8.20;1.52;;;18.70;99.90;;;;;;4978232;28;20027;-73
2022/10/19 12:47:10;;;;;;;7.10;1.50;;;18.50;99.90;;;;;;4988285;28;20362;-73
2022/10/19 12:49:44;;;;;;;12.18;1.92;;;18.20;99.90;;;;;;5057847;28;20116;-73
2022/10/19 12:52:10;;;;;;;8.02;1.80;;;18.40;99.90;;;;;;5057910;28;20032;-73
2022/10/19 12:54:39;;;;;;;11.55;1.80;;;18.20;99.90;;;;;;5075751;28;20040;-73
2022/10/19 12:57:22;;;;;;;5.80;1.15;;;18.30;99.90;;;;;;5057632;28;20036;-73
2022/10/19 13:00:03;;;;;;;3.40;1.23;;;18.20;99.90;;;;;;5057642;28;20464;-73
2022/10/19 13:02:32;;;;;;;8.20;1.42;;;18.60;99.90;;;;;;5057638;28;20063;-74
2022/10/19 13:04:58;;;;;;;6.55;1.40;;;18.40;99.90;;;;;;5076327;28;20061;-75